createdAt,value
2022-08-17T00:03:23.302Z,96509.97
2022-08-17T00:07:20.305Z,96498.72
2022-08-17T00:11:38.156Z,96542.47
2022-08-17T00:15:35.340Z,96540.72
2022-08-17T00:19:33.127Z,96551.56
2022-08-17T00:23:30.564Z,96503.91
2022-08-17T00:27:27.579Z,96516.47
2022-08-17T00:31:25.343Z,96500.63
2022-08-17T00:35:25.421Z,96534.59
2022-08-17T00:39:22.394Z,96517.09
2022-08-17T00:43:36.876Z,96540.81
2022-08-17T00:47:34.109Z,96529.81
2022-08-17T00:51:57.011Z,96521.25
2022-08-17T00:55:54.847Z,96516.56
2022-08-17T01:00:09.725Z,96537.41
2022-08-17T01:04:07.920Z,96546.13
2022-08-17T01:08:13.674Z,96536.19
2022-08-17T01:12:12.549Z,96532.03
2022-08-17T01:16:18.778Z,96544.84
2022-08-17T01:20:16.992Z,96546.03
2022-08-17T01:24:14.675Z,96532.28
2022-08-17T01:28:11.706Z,96517.88
2022-08-17T01:32:30.549Z,96539.03
2022-08-17T01:36:28.308Z,96551.56
2022-08-17T01:40:43.273Z,96531.50
2022-08-17T01:44:40.293Z,96537.28
2022-08-17T01:48:39.267Z,96532.28
2022-08-17T01:52:36.717Z,96537.03
2022-08-17T01:56:38.742Z,96544.38
2022-08-17T02:00:51.760Z,96540.19
2022-08-17T02:04:56.778Z,96536.34
2022-08-17T02:09:02.773Z,96536.25
2022-08-17T02:13:03.922Z,96537.88
2022-08-17T02:17:00.933Z,96478.59
2022-08-17T02:20:57.942Z,96502.41
2022-08-17T02:24:58.655Z,96512.81
2022-08-17T02:28:58.811Z,96467.59
2022-08-17T02:32:56.400Z,96508.59
2022-08-17T02:36:53.729Z,96500.69
2022-08-17T02:40:50.920Z,96516.41
2022-08-17T02:44:48.090Z,96459.13
2022-08-17T02:48:45.149Z,96487.38
2022-08-17T02:52:45.040Z,96507.91
2022-08-17T02:56:54.304Z,96512.47
2022-08-17T03:00:51.321Z,96485.53
2022-08-17T03:04:48.368Z,96500.44
2022-08-17T03:08:45.363Z,96489.53
2022-08-17T03:12:43.618Z,96502.03
2022-08-17T03:16:41.353Z,96500.19
2022-08-17T03:20:39.791Z,96485.28
2022-08-17T03:24:36.802Z,96475.72
2022-08-17T03:28:33.981Z,96491.16
2022-08-17T03:32:37.048Z,96489.81
2022-08-17T03:36:36.081Z,96496.50
2022-08-17T03:40:55.728Z,96482.41
2022-08-17T03:44:52.448Z,96482.16
2022-08-17T03:49:13.676Z,96494.66
2022-08-17T03:53:35.813Z,96502.97
2022-08-17T03:57:32.904Z,96490.69
2022-08-17T04:01:29.997Z,96460.25
2022-08-17T04:05:27.032Z,96484.25
2022-08-17T04:09:24.053Z,96503.47
2022-08-17T04:13:24.982Z,96512.53
2022-08-17T04:17:27.962Z,96507.72
2022-08-17T04:21:24.951Z,96511.97
2022-08-17T04:25:22.451Z,96463.47
2022-08-17T04:29:20.351Z,96524.53
2022-08-17T04:33:21.971Z,96510.91
2022-08-17T04:37:19.011Z,96518.09
2022-08-17T04:41:35.018Z,96510.09
2022-08-17T04:45:32.729Z,96523.41
2022-08-17T04:49:29.833Z,96526.94
2022-08-17T04:53:27.997Z,96545.09
2022-08-17T04:57:25.036Z,96527.50
2022-08-17T05:01:24.872Z,96523.75
2022-08-17T05:05:28.104Z,96548.81
2022-08-17T05:09:25.175Z,96546.34
2022-08-17T05:13:26.695Z,96552.41
2022-08-17T05:17:23.776Z,96558.75
2022-08-17T05:21:23.015Z,96552.34
2022-08-17T05:25:27.715Z,96546.94
2022-08-17T05:29:35.329Z,96551.16
2022-08-17T05:33:40.415Z,96567.63
2022-08-17T05:37:39.687Z,96518.47
2022-08-17T05:41:36.697Z,96528.03
2022-08-17T05:45:55.245Z,96571.81
2022-08-17T05:49:54.279Z,96570.88
2022-08-17T05:54:14.104Z,96558.53
2022-08-17T05:58:34.331Z,96534.47
2022-08-17T06:03:08.253Z,96544.81
2022-08-17T06:07:34.234Z,96525.78
2022-08-17T06:12:03.642Z,96541.13
2022-08-17T06:16:34.246Z,96533.84
2022-08-17T06:20:56.462Z,96534.00
2022-08-17T06:25:02.473Z,96551.13
2022-08-17T06:29:31.273Z,96542.28
2022-08-17T06:33:37.463Z,96542.31
2022-08-17T06:38:21.837Z,96549.31
2022-08-17T06:43:06.517Z,96540.97
2022-08-17T06:47:13.695Z,96512.47
2022-08-17T06:51:23.900Z,96531.13
2022-08-17T06:55:51.127Z,96552.22
2022-08-17T06:59:56.740Z,96555.47
2022-08-17T07:04:11.735Z,96560.47
2022-08-17T07:08:27.723Z,96559.50
2022-08-17T07:12:37.541Z,96545.16
2022-08-17T07:16:50.542Z,96548.16
2022-08-17T07:20:56.100Z,96549.25
2022-08-17T07:24:58.439Z,96561.69
2022-08-17T07:28:58.271Z,96564.28
2022-08-17T07:32:57.940Z,96557.53
2022-08-17T07:37:05.383Z,96566.28
2022-08-17T07:41:10.781Z,96572.97
2022-08-17T07:45:28.965Z,96568.19
2022-08-17T07:49:32.195Z,96564.94
2022-08-17T07:53:32.024Z,96559.63
2022-08-17T07:57:36.259Z,96580.94
2022-08-17T08:01:39.375Z,96559.09
2022-08-17T08:06:02.062Z,96564.00
2022-08-17T08:10:13.017Z,96572.34
2022-08-17T08:14:29.622Z,96581.25
2022-08-17T08:18:54.606Z,96584.84
2022-08-17T08:23:37.356Z,96585.97
2022-08-17T08:28:12.836Z,96587.00
2022-08-17T08:32:29.518Z,96583.91
2022-08-17T08:37:16.544Z,96582.25
2022-08-17T08:41:40.660Z,96561.59
2022-08-17T08:45:46.000Z,96575.56
2022-08-17T08:50:37.071Z,96569.84
2022-08-17T08:54:44.466Z,96579.81
2022-08-17T08:59:07.832Z,96560.53
2022-08-17T09:03:36.531Z,96564.09
2022-08-17T09:07:59.889Z,96553.88
2022-08-17T09:12:09.850Z,96558.19
2022-08-17T09:16:57.762Z,96557.19
2022-08-17T09:21:02.262Z,96542.53
2022-08-17T09:25:10.904Z,96540.59
2022-08-17T09:29:13.189Z,96542.53
2022-08-17T09:33:15.769Z,96532.19
2022-08-17T09:37:22.539Z,96528.94
2022-08-17T09:41:49.481Z,96511.91
2022-08-17T09:45:57.307Z,96520.94
2022-08-17T09:50:08.967Z,96514.34
2022-08-17T09:54:44.613Z,96488.84
2022-08-17T09:59:17.330Z,96518.63
2022-08-17T10:04:02.416Z,96504.69
2022-08-17T10:08:23.022Z,96505.84
2022-08-17T10:12:40.085Z,96513.72
2022-08-17T10:17:02.469Z,96510.38
2022-08-17T10:21:34.130Z,96498.56
2022-08-17T10:25:55.906Z,96492.63
2022-08-17T10:30:01.333Z,96506.34
2022-08-17T10:34:25.965Z,96504.22
2022-08-17T10:39:07.115Z,96503.28
2022-08-17T10:44:36.563Z,96493.59
2022-08-17T10:48:29.905Z,96486.59
2022-08-17T10:52:48.699Z,96502.00
2022-08-17T10:56:51.123Z,96498.97
2022-08-17T11:00:54.237Z,96490.94
2022-08-17T11:05:07.624Z,96480.19
2022-08-17T11:09:51.680Z,96499.66
2022-08-17T11:14:33.801Z,96499.75
2022-08-17T11:19:14.931Z,96488.09
2022-08-17T11:23:29.960Z,96497.06
2022-08-17T11:27:36.310Z,96480.56
2022-08-17T11:31:43.773Z,96479.00
2022-08-17T11:35:55.183Z,96485.03
2022-08-17T11:40:27.309Z,96480.25
2022-08-17T11:45:07.096Z,96476.19
2022-08-17T11:49:37.523Z,96497.97
2022-08-17T11:53:37.621Z,96476.19
2022-08-17T11:57:40.468Z,96479.06
2022-08-17T12:01:56.755Z,96488.91
2022-08-17T12:06:42.451Z,96493.22
2022-08-17T12:11:10.745Z,96484.91
2022-08-17T12:15:17.473Z,96482.88
2022-08-17T12:19:21.779Z,96481.47
2022-08-17T12:24:05.401Z,96475.66
2022-08-17T12:28:05.947Z,96461.75
2022-08-17T12:32:07.234Z,96456.41
2022-08-17T12:36:08.777Z,96456.78
2022-08-17T12:40:23.329Z,96451.41
2022-08-17T12:44:35.956Z,96439.53
2022-08-17T12:48:59.052Z,96460.97
2022-08-17T12:53:01.921Z,96464.88
2022-08-17T12:57:12.019Z,96452.91
2022-08-17T13:01:16.076Z,96446.81
2022-08-17T13:05:40.510Z,96452.03
2022-08-17T13:09:40.452Z,96445.53
2022-08-17T13:13:43.639Z,96444.72
2022-08-17T13:17:40.663Z,96433.88
2022-08-17T13:21:50.454Z,96451.78
2022-08-17T13:26:05.474Z,96421.66
2022-08-17T13:30:12.266Z,96434.91
2022-08-17T13:34:24.010Z,96430.09
2022-08-17T13:38:49.603Z,96402.38
2022-08-17T13:42:55.758Z,96421.75
2022-08-17T13:46:56.915Z,96429.28
2022-08-17T13:50:57.422Z,96447.66
2022-08-17T13:54:55.615Z,96420.75
2022-08-17T13:59:53.062Z,96431.94
2022-08-17T14:03:44.477Z,96438.94
2022-08-17T14:07:41.847Z,96412.84
2022-08-17T14:11:38.926Z,96419.75
2022-08-17T14:15:55.201Z,96416.75
2022-08-17T14:19:53.199Z,96399.28
2022-08-17T14:23:54.611Z,96392.09
2022-08-17T14:27:53.967Z,96390.34
2022-08-17T14:31:54.177Z,96405.19
2022-08-17T14:35:53.630Z,96386.13
2022-08-17T14:39:50.873Z,96399.81
2022-08-17T14:43:48.018Z,96407.75
2022-08-17T14:47:45.096Z,96410.97
2022-08-17T14:51:44.110Z,96413.53
2022-08-17T14:55:41.488Z,96402.88
2022-08-17T14:59:38.577Z,96373.69
2022-08-17T15:03:35.658Z,96372.47
2022-08-17T15:07:32.669Z,96370.03
2022-08-17T15:11:29.691Z,96351.47
2022-08-17T15:15:28.153Z,96365.59
2022-08-17T15:19:25.339Z,96357.38
2022-08-17T15:23:25.874Z,96359.97
2022-08-17T15:27:32.556Z,96358.59
2022-08-17T15:31:32.359Z,96370.41
2022-08-17T15:35:32.955Z,96345.59
2022-08-17T15:39:29.959Z,96355.81
2022-08-17T15:43:33.481Z,96357.28
2022-08-17T15:47:30.453Z,96359.66
2022-08-17T15:51:33.754Z,96363.56
2022-08-17T15:55:33.629Z,96361.25
2022-08-17T15:59:31.066Z,96370.72
2022-08-17T16:04:01.359Z,96357.16
2022-08-17T16:07:45.681Z,96357.00
2022-08-17T16:11:46.020Z,96361.44
2022-08-17T16:15:56.774Z,96365.41
2022-08-17T16:19:55.661Z,96376.97
2022-08-17T16:24:05.020Z,96379.00
2022-08-17T16:28:10.068Z,96333.66
2022-08-17T16:32:15.362Z,96376.00
2022-08-17T16:36:12.423Z,96362.56
2022-08-17T16:40:10.416Z,96379.00
2022-08-17T16:44:07.602Z,96378.41
2022-08-17T16:48:07.422Z,96377.97
2022-08-17T16:52:10.587Z,96364.97
2022-08-17T16:56:07.982Z,96358.75
2022-08-17T17:00:09.478Z,96350.09
2022-08-17T17:04:10.835Z,96349.47
2022-08-17T17:08:26.409Z,96355.81
2022-08-17T17:12:58.141Z,96359.75
2022-08-17T17:17:06.165Z,96332.25
2022-08-17T17:21:06.390Z,96365.22
2022-08-17T17:25:45.324Z,96352.13
2022-08-17T17:30:12.370Z,96334.72
2022-08-17T17:34:16.660Z,96344.50
2022-08-17T17:38:28.990Z,96362.03
2022-08-17T17:42:31.680Z,96353.56
2022-08-17T17:46:38.051Z,96359.63
2022-08-17T17:51:05.083Z,96353.78
2022-08-17T17:55:13.235Z,96355.28
2022-08-17T17:59:32.851Z,96343.41
2022-08-17T18:04:08.357Z,96357.41
2022-08-17T18:08:33.851Z,96366.84
2022-08-17T18:12:45.805Z,96364.81
2022-08-17T18:16:46.543Z,96358.28
2022-08-17T18:20:53.997Z,96346.69
2022-08-17T18:24:58.261Z,96346.91
2022-08-17T18:28:55.385Z,96330.50
2022-08-17T18:32:52.591Z,96344.13
2022-08-17T18:36:50.065Z,96333.28
2022-08-17T18:41:02.201Z,96343.06
2022-08-17T18:44:59.235Z,96353.28
2022-08-17T18:49:24.234Z,96363.47
2022-08-17T18:53:41.093Z,96363.44
2022-08-17T18:57:43.231Z,96375.97
2022-08-17T19:01:59.299Z,96372.59
2022-08-17T19:06:28.354Z,96388.50
2022-08-17T19:10:46.176Z,96370.69
2022-08-17T19:14:44.451Z,96363.69
2022-08-17T19:19:02.186Z,96374.63
2022-08-17T19:23:24.379Z,96372.13
2022-08-17T19:27:46.452Z,96363.91
2022-08-17T19:31:46.823Z,96367.63
2022-08-17T19:35:57.460Z,96344.25
2022-08-17T19:40:52.295Z,96389.69
2022-08-17T19:45:33.125Z,96382.44
2022-08-17T19:49:54.598Z,96398.06
2022-08-17T19:54:06.013Z,96392.19
2022-08-17T19:58:39.829Z,96388.34
2022-08-17T20:02:51.935Z,96378.13
2022-08-17T20:06:49.778Z,96374.84
2022-08-17T20:10:56.702Z,96383.75
2022-08-17T20:15:04.167Z,96395.94
2022-08-17T20:19:08.724Z,96393.44
2022-08-17T20:23:33.260Z,96405.47
2022-08-17T20:27:37.082Z,96415.66
2022-08-17T20:32:14.750Z,96395.66
2022-08-17T20:36:11.647Z,96408.50
2022-08-17T20:40:09.397Z,96412.91
2022-08-17T20:44:06.834Z,96410.75
2022-08-17T20:48:36.851Z,96408.72
2022-08-17T20:52:55.719Z,96421.69
2022-08-17T20:56:56.477Z,96405.81
2022-08-17T21:00:56.518Z,96409.66
2022-08-17T21:04:54.628Z,96408.69
2022-08-17T21:09:17.223Z,96409.06
2022-08-17T21:13:15.550Z,96415.75
2022-08-17T21:17:48.505Z,96417.88
2022-08-17T21:22:25.233Z,96412.00
2022-08-17T21:27:03.285Z,96400.56
2022-08-17T21:31:09.173Z,96377.72
2022-08-17T21:35:28.642Z,96390.09
2022-08-17T21:39:40.740Z,96386.75
2022-08-17T21:43:47.997Z,96405.31
2022-08-17T21:48:14.081Z,96399.13
2022-08-17T21:52:17.728Z,96396.47
2022-08-17T21:56:29.172Z,96390.09
2022-08-17T22:00:32.397Z,96389.78
2022-08-17T22:04:36.222Z,96401.41
2022-08-17T22:08:33.274Z,96390.28
2022-08-17T22:12:30.413Z,96383.44
2022-08-17T22:16:29.698Z,96397.41
2022-08-17T22:20:27.204Z,96396.31
2022-08-17T22:24:25.037Z,96397.09
2022-08-17T22:28:43.990Z,96402.78
2022-08-17T22:32:46.310Z,96402.63
2022-08-17T22:36:43.455Z,96385.97
2022-08-17T22:40:40.564Z,96389.50
2022-08-17T22:44:48.712Z,96383.44
2022-08-17T22:48:57.750Z,96391.41
2022-08-17T22:53:32.064Z,96394.91
2022-08-17T22:57:48.857Z,96387.78
2022-08-17T23:02:11.744Z,96357.91
2022-08-17T23:06:11.758Z,96396.81
2022-08-17T23:10:09.637Z,96392.19
2022-08-17T23:14:06.941Z,96387.72
2022-08-17T23:18:04.947Z,96367.91
2022-08-17T23:22:06.397Z,96380.78
2022-08-17T23:26:03.555Z,96377.13
2022-08-17T23:30:00.563Z,96370.50
2022-08-17T23:33:59.272Z,96381.66
2022-08-17T23:37:56.367Z,96395.94
2022-08-17T23:41:53.671Z,96385.63
2022-08-17T23:45:50.804Z,96394.66
2022-08-17T23:49:49.061Z,96387.69
2022-08-17T23:53:58.251Z,96401.81
2022-08-17T23:57:55.295Z,96396.59
